CDT,Max TemperatureF,Mean TemperatureF,Min TemperatureF,Max Dew PointF,MeanDew PointF,Min DewpointF,Max Humidity, Mean Humidity, Min Humidity, Max Sea Level PressureIn, Mean Sea Level PressureIn, Min Sea Level PressureIn, Max VisibilityMiles, Mean VisibilityMiles, Min VisibilityMiles, Max Wind SpeedMPH, Mean Wind SpeedMPH, Max Gust SpeedMPH,PrecipitationIn, CloudCover, Events, WindDirDegrees
2012-10-1,70,53,35,50,40,28,77,50,22,30.15,30.06,29.94,10,10,6,28,13,36,0.01,3,Rain,340
2012-10-2,77,51,25,34,27,23,85,50,14,30.08,29.95,29.82,10,10,10,17,6,23,0.00,0,,194
2012-10-3,89,65,41,44,37,30,73,43,13,30.11,29.80,29.64,10,10,10,32,16,45,0.00,0,,155
2012-10-4,54,40,25,37,30,24,78,57,35,30.40,30.27,30.13,10,10,10,30,14,38,0.00,2,,334
2012-10-5,53,38,23,27,22,17,92,60,28,30.43,30.37,30.32,10,10,10,21,7,25,0.00,3,,322
2012-10-6,47,35,23,21,17,14,81,54,26,30.46,30.40,30.30,10,10,10,14,6,17,0.00,1,,312
2012-10-7,58,37,16,27,20,13,92,58,23,30.36,30.18,29.99,10,10,10,20,8,29,0.00,0,,229
2012-10-8,76,55,33,34,27,23,64,40,16,29.98,29.86,29.74,10,10,10,18,6,24,0.00,0,,268
2012-10-9,58,44,30,41,29,21,82,54,25,30.21,30.01,29.84,10,10,9,26,12,36,0.00,2,,328
2012-10-10,67,45,22,32,27,19,88,57,26,30.25,30.13,29.99,10,10,7,21,7,28,0.00,0,,208
2012-10-11,54,43,31,33,28,22,82,56,30,30.40,30.15,29.95,10,10,10,23,10,30,0.00,0,,31
2012-10-12,49,38,26,41,28,18,82,57,31,30.40,30.21,29.95,10,10,10,22,9,28,0.00,4,,158
2012-10-13,81,64,47,52,46,37,96,62,28,29.91,29.73,29.59,10,10,9,18,9,24,0.00,4,,210
2012-10-14,76,58,39,39,35,31,62,44,25,30.01,29.94,29.76,10,10,10,25,12,33,0.00,1,,322
2012-10-15,82,57,32,41,33,27,76,46,16,30.01,29.86,29.67,10,10,10,15,7,21,0.00,0,,221
2012-10-16,78,61,43,43,39,34,76,49,21,29.70,29.54,29.34,10,10,10,18,10,24,0.00,0,,264
2012-10-17,68,58,47,46,28,14,66,41,16,29.71,29.57,29.32,10,10,7,43,25,53,0.00,2,,305
2012-10-18,52,48,44,31,25,18,58,45,31,29.81,29.71,29.64,10,8,2,51,36,70,0.00,5,,313
2012-10-19,60,47,34,34,29,22,76,52,27,29.91,29.85,29.80,10,10,10,35,14,47,0.00,2,,316
2012-10-20,74,50,26,33,29,24,92,56,19,29.81,29.71,29.62,10,10,10,17,5,21,0.00,0,,142
2012-10-21,74,53,31,43,35,28,82,55,27,29.86,29.75,29.65,10,10,10,17,7,24,0.00,1,,4
2012-10-22,50,48,45,46,45,41,100,87,74,29.92,29.85,29.81,10,5,0,16,8,21,T,7,Fog-Rain,349
2012-10-23,65,52,39,53,48,41,100,82,63,29.82,29.74,29.67,10,3,0,13,4,15,0.00,7,Fog,202
2012-10-24,56,46,36,48,41,29,93,72,50,29.90,29.84,29.80,10,8,1,26,16,37,T,7,,357
2012-10-25,36,34,31,34,29,24,100,86,72,30.43,30.09,29.85,10,5,1,30,17,37,0.19,8,Rain-Snow,337
2012-10-26,36,32,27,27,24,21,85,71,56,30.59,30.49,30.40,10,10,10,20,7,24,0.00,7,,318
2012-10-27,46,34,22,27,25,20,92,71,49,30.41,30.31,30.20,10,10,8,20,8,25,0.00,3,,163
2012-10-28,55,36,17,30,24,14,96,66,35,30.28,30.19,30.10,10,9,5,18,7,24,0.00,3,,155
2012-10-29,64,47,29,34,31,27,85,60,34,30.12,30.07,30.01,10,10,10,13,5,17,0.00,1,,134
2012-10-30,62,47,32,33,32,31,82,59,35,30.06,30.03,29.98,10,10,10,10,3,14,0.00,2,,134
2012-10-31,72,50,28,40,35,27,92,62,31,30.07,30.02,29.96,10,10,6,9,1,12,0.00,0,,281